Time;durP1;ratioP1;P1;durP2;ratioP2;P2;SDS_P1;SDS_P2;PMS_P1;PMS_P2;Temp;Humidity;BMP_temperature;BMP_pressure;BME280_temperature;BME280_humidity;BME280_pressure;Samples;Min_cycle;Max_cycle;Signal;HPM_P1;HPM_P2
2024/01/02 00:01:12;;;;;;;3.50;1.40;;;7.20;99.90;;;;;;5023138;28;20411;-67
2024/01/02 00:03:40;;;;;;;6.32;1.83;;;7.30;99.90;;;;;;5023830;28;20432;-67
2024/01/02 00:06:07;;;;;;;4.85;1.67;;;7.30;99.90;;;;;;5020654;28;20419;-67
2024/01/02 00:08:34;;;;;;;3.30;1.27;;;7.30;99.90;;;;;;5020978;28;20431;-67
2024/01/02 00:11:00;;;;;;;4.68;1.60;;;7.30;99.90;;;;;;5022186;28;20435;-67
2024/01/02 00:13:27;;;;;;;4.78;1.50;;;7.30;99.90;;;;;;5013830;28;20434;-67
2024/01/02 00:15:54;;;;;;;5.13;1.60;;;7.30;99.90;;;;;;5020746;28;20442;-66
2024/01/02 00:18:21;;;;;;;3.97;1.35;;;7.30;99.90;;;;;;5019780;28;20454;-68
2024/01/02 00:20:49;;;;;;;3.95;1.40;;;7.30;99.90;;;;;;5018686;28;20411;-66
2024/01/02 00:23:16;;;;;;;3.70;1.60;;;7.30;99.90;;;;;;5017869;28;20591;-68
2024/01/02 00:25:43;;;;;;;3.13;1.20;;;7.30;99.90;;;;;;5016244;28;20442;-69
2024/01/02 00:28:10;;;;;;;5.13;1.37;;;7.30;99.90;;;;;;5016701;28;20461;-69
2024/01/02 00:30:37;;;;;;;4.38;1.40;;;7.30;99.90;;;;;;5019723;28;20431;-69
2024/01/02 00:33:04;;;;;;;3.65;1.45;;;7.30;99.90;;;;;;5021605;28;20763;-69
2024/01/02 00:35:31;;;;;;;5.03;1.60;;;7.30;99.90;;;;;;5018701;28;20410;-68
2024/01/02 00:38:00;;;;;;;4.05;1.20;;;7.30;99.90;;;;;;5018680;28;20415;-68
2024/01/02 00:40:26;;;;;;;4.60;1.40;;;7.30;99.90;;;;;;5019320;28;20857;-68
2024/01/02 00:42:53;;;;;;;4.68;1.60;;;7.30;99.90;;;;;;5020965;28;20877;-66
2024/01/02 00:45:20;;;;;;;3.50;1.40;;;7.20;99.90;;;;;;5017207;28;20438;-66
2024/01/02 00:47:47;;;;;;;4.13;1.60;;;7.20;99.90;;;;;;5020726;28;20515;-69
2024/01/02 00:50:13;;;;;;;4.65;1.30;;;7.20;99.90;;;;;;5018774;28;20952;-71
2024/01/02 00:52:40;;;;;;;3.43;1.37;;;7.20;99.90;;;;;;5020347;28;20474;-67
2024/01/02 00:55:09;;;;;;;2.83;1.10;;;7.20;99.90;;;;;;5019066;28;20498;-69
2024/01/02 00:57:36;;;;;;;4.40;1.30;;;7.20;99.90;;;;;;5015255;28;20510;-67
2024/01/02 01:00:04;;;;;;;3.90;1.40;;;7.20;99.90;;;;;;5015844;28;20462;-67
2024/01/02 01:02:31;;;;;;;3.08;1.30;;;7.20;99.90;;;;;;5020659;28;20943;-67
2024/01/02 01:04:57;;;;;;;3.50;1.30;;;7.20;99.90;;;;;;5023508;28;20457;-67
2024/01/02 01:07:24;;;;;;;5.13;1.60;;;7.10;99.90;;;;;;5030460;28;20407;-68
2024/01/02 01:09:51;;;;;;;3.25;1.20;;;7.20;99.90;;;;;;5039884;28;20449;-68
2024/01/02 01:12:19;;;;;;;5.05;1.60;;;7.10;99.90;;;;;;5030947;28;20446;-67
2024/01/02 01:14:45;;;;;;;3.40;1.40;;;7.10;99.90;;;;;;5034060;28;20430;-67
2024/01/02 01:17:12;;;;;;;3.85;1.50;;;7.10;99.90;;;;;;5025924;28;20420;-67
2024/01/02 01:19:40;;;;;;;3.80;1.63;;;7.10;99.90;;;;;;5026515;28;20645;-67
2024/01/02 01:22:06;;;;;;;4.32;1.40;;;7.10;99.90;;;;;;5014602;28;20718;-66
2024/01/02 01:24:33;;;;;;;3.97;1.52;;;7.10;99.90;;;;;;5022757;28;20419;-67
2024/01/02 01:27:00;;;;;;;3.45;1.58;;;7.10;99.90;;;;;;5021137;28;20845;-68
2024/01/02 01:29:28;;;;;;;3.38;1.30;;;7.10;99.90;;;;;;5024275;28;20431;-67
2024/01/02 01:31:55;;;;;;;2.28;1.00;;;7.10;99.90;;;;;;5022037;28;20423;-67
2024/01/02 01:34:22;;;;;;;2.20;1.00;;;7.10;99.90;;;;;;5018648;28;20438;-67
2024/01/02 01:36:48;;;;;;;2.53;0.82;;;7.10;99.90;;;;;;5020342;28;20434;-68
2024/01/02 01:39:15;;;;;;;2.10;0.80;;;7.10;99.90;;;;;;5015673;28;20405;-67
2024/01/02 01:41:42;;;;;;;1.35;0.80;;;7.10;99.90;;;;;;5022426;28;20975;-66
2024/01/02 01:44:09;;;;;;;3.20;0.90;;;7.10;99.90;;;;;;5016814;28;20458;-67
2024/01/02 01:46:39;;;;;;;1.80;0.70;;;7.10;99.90;;;;;;5026919;28;20766;-67
2024/01/02 01:49:08;;;;;;;5.68;1.00;;;7.20;99.90;;;;;;5025416;28;20796;-67
2024/01/02 01:51:37;;;;;;;1.40;0.70;;;7.20;99.90;;;;;;5026864;28;20415;-67
2024/01/02 01:54:05;;;;;;;1.55;0.70;;;7.20;99.90;;;;;;5017233;28;20773;-66
2024/01/02 01:56:33;;;;;;;1.35;0.77;;;7.20;99.90;;;;;;5024043;28;20435;-67
2024/01/02 01:59:00;;;;;;;2.17;0.60;;;7.20;99.90;;;;;;5016905;28;20731;-68
2024/01/02 02:01:29;;;;;;;1.70;0.60;;;7.20;99.90;;;;;;5019990;28;20502;-67
2024/01/02 02:03:57;;;;;;;1.60;0.60;;;7.20;99.90;;;;;;5023482;28;20411;-68
2024/01/02 02:06:24;;;;;;;1.40;0.70;;;7.20;99.90;;;;;;5024890;28;20469;-67
2024/01/02 02:08:52;;;;;;;2.85;0.80;;;7.20;99.90;;;;;;5021663;28;20419;-67
2024/01/02 02:11:20;;;;;;;1.33;0.70;;;7.10;99.90;;;;;;5017656;28;20442;-66
2024/01/02 02:13:47;;;;;;;2.22;0.60;;;7.20;99.90;;;;;;5033628;28;20430;-67
2024/01/02 02:16:14;;;;;;;1.67;0.60;;;7.10;99.90;;;;;;5038818;28;20415;-68
2024/01/02 02:18:41;;;;;;;1.83;0.60;;;7.10;99.90;;;;;;5034244;28;20426;-67
2024/01/02 02:21:09;;;;;;;2.28;0.60;;;7.10;99.90;;;;;;5019053;28;20762;-66
2024/01/02 02:23:37;;;;;;;2.70;0.90;;;7.10;99.90;;;;;;5025024;28;20919;-67
2024/01/02 02:26:04;;;;;;;1.80;0.80;;;7.10;99.90;;;;;;5021041;28;20496;-69
2024/01/02 02:28:31;;;;;;;2.00;1.00;;;7.10;99.90;;;;;;5021788;28;20435;-68
2024/01/02 02:30:57;;;;;;;2.80;0.80;;;7.00;99.90;;;;;;5023591;28;20748;-66
2024/01/02 02:33:24;;;;;;;1.70;1.10;;;7.10;99.90;;;;;;5021535;28;20983;-67
2024/01/02 02:35:51;;;;;;;1.30;0.80;;;7.00;99.90;;;;;;5020679;28;20542;-68
2024/01/02 02:38:18;;;;;;;1.70;1.00;;;7.00;99.90;;;;;;5031151;28;20419;-68
2024/01/02 02:40:46;;;;;;;1.60;0.90;;;7.00;99.90;;;;;;5021911;28;20445;-68
2024/01/02 02:43:13;;;;;;;1.30;0.70;;;6.90;99.90;;;;;;5016139;28;20433;-67
2024/01/02 02:45:39;;;;;;;1.40;0.50;;;7.00;99.90;;;;;;5022009;28;20416;-67
2024/01/02 02:48:07;;;;;;;2.10;0.40;;;6.90;99.90;;;;;;5010575;28;20599;-66
2024/01/02 02:50:34;;;;;;;1.95;0.50;;;6.90;99.90;;;;;;5020431;28;20434;-68
2024/01/02 02:53:01;;;;;;;1.50;0.40;;;6.90;99.90;;;;;;5022180;28;20438;-67
2024/01/02 02:55:28;;;;;;;2.80;0.60;;;6.80;99.90;;;;;;5020611;28;20439;-67
2024/01/02 02:57:56;;;;;;;1.30;0.80;;;6.80;99.90;;;;;;5018579;28;20427;-67
2024/01/02 03:00:22;;;;;;;1.30;0.40;;;6.80;99.90;;;;;;5016525;28;20422;-67
2024/01/02 03:02:48;;;;;;;1.20;0.40;;;6.80;99.90;;;;;;5018211;28;20423;-67
2024/01/02 03:05:16;;;;;;;0.70;0.30;;;6.80;99.90;;;;;;5014459;28;20561;-68
2024/01/02 03:07:42;;;;;;;1.00;0.50;;;6.70;99.90;;;;;;5021788;28;20518;-66
2024/01/02 03:10:13;;;;;;;1.02;0.40;;;6.70;99.90;;;;;;5022124;28;20447;-67
2024/01/02 03:12:40;;;;;;;1.40;0.40;;;6.70;99.90;;;;;;5022813;28;20468;-67
2024/01/02 03:15:09;;;;;;;0.70;0.35;;;6.70;99.90;;;;;;5023013;28;20411;-68
2024/01/02 03:17:36;;;;;;;1.35;0.30;;;6.70;99.90;;;;;;5007819;28;20420;-68
2024/01/02 03:20:03;;;;;;;1.40;0.50;;;6.70;99.90;;;;;;5019302;28;20782;-68
2024/01/02 03:22:30;;;;;;;0.80;0.40;;;6.70;99.90;;;;;;5020675;28;20519;-70
2024/01/02 03:24:57;;;;;;;2.20;0.50;;;6.70;99.90;;;;;;5023211;28;20426;-67
2024/01/02 03:27:23;;;;;;;0.80;0.40;;;6.70;99.90;;;;;;5021435;28;20430;-67
2024/01/02 03:29:50;;;;;;;0.95;0.40;;;6.70;99.90;;;;;;5021195;28;20466;-66
2024/01/02 03:32:18;;;;;;;1.40;0.40;;;6.70;99.90;;;;;;5016983;28;20424;-66
2024/01/02 03:34:45;;;;;;;1.27;0.40;;;6.60;99.90;;;;;;5018985;28;20411;-66
2024/01/02 03:37:13;;;;;;;1.20;0.50;;;6.70;99.90;;;;;;5022198;28;20894;-67
2024/01/02 03:39:40;;;;;;;0.70;0.40;;;6.60;99.90;;;;;;5020529;28;20525;-67
2024/01/02 03:42:07;;;;;;;1.80;0.50;;;6.70;99.90;;;;;;5022833;28;20502;-66
2024/01/02 03:44:33;;;;;;;1.00;0.40;;;6.70;99.90;;;;;;5022858;28;20845;-67
2024/01/02 03:47:00;;;;;;;0.90;0.40;;;6.60;99.90;;;;;;5021673;28;20423;-67
2024/01/02 03:49:28;;;;;;;1.00;0.50;;;6.60;99.90;;;;;;5014780;28;20449;-67
2024/01/02 03:51:55;;;;;;;1.10;0.50;;;6.60;99.90;;;;;;5021524;28;20431;-67
2024/01/02 03:54:22;;;;;;;0.80;0.40;;;6.60;99.90;;;;;;5021301;28;20461;-67
2024/01/02 03:56:48;;;;;;;1.80;0.40;;;6.60;99.90;;;;;;5020856;28;20419;-67
2024/01/02 03:59:15;;;;;;;1.00;0.40;;;6.60;99.90;;;;;;5015198;28;20417;-67
2024/01/02 04:01:45;;;;;;;1.40;0.40;;;6.60;99.90;;;;;;5026293;28;20850;-67
2024/01/02 04:04:12;;;;;;;0.88;0.40;;;6.60;99.90;;;;;;5005859;28;20905;-68
2024/01/02 04:06:40;;;;;;;1.65;0.40;;;6.60;99.90;;;;;;5022039;28;20411;-67
2024/01/02 04:09:08;;;;;;;1.30;0.40;;;6.70;99.90;;;;;;5024347;28;20446;-66
2024/01/02 04:11:34;;;;;;;1.50;0.40;;;6.60;99.90;;;;;;5019836;28;20431;-65
2024/01/02 04:14:01;;;;;;;1.58;0.40;;;6.70;99.90;;;;;;5021435;28;20410;-66
2024/01/02 04:16:28;;;;;;;1.20;0.50;;;6.70;99.90;;;;;;5012254;28;20868;-67
2024/01/02 04:18:55;;;;;;;2.15;0.60;;;6.70;99.90;;;;;;5018408;28;20414;-66
2024/01/02 04:21:21;;;;;;;1.13;0.40;;;6.70;99.90;;;;;;5019230;28;20407;-67
2024/01/02 04:23:49;;;;;;;1.20;0.50;;;6.70;99.90;;;;;;5020624;28;20423;-68
2024/01/02 04:26:16;;;;;;;1.50;0.40;;;6.70;99.90;;;;;;5021384;28;20427;-68
2024/01/02 04:28:43;;;;;;;1.35;0.43;;;6.70;99.90;;;;;;5020559;28;20440;-67
2024/01/02 04:31:10;;;;;;;1.90;0.60;;;6.70;99.90;;;;;;5020643;28;20906;-67
2024/01/02 04:33:36;;;;;;;1.80;0.60;;;6.80;99.90;;;;;;5025670;28;20420;-68
2024/01/02 04:36:03;;;;;;;1.63;0.60;;;6.80;99.90;;;;;;5020384;28;20434;-67
2024/01/02 04:38:30;;;;;;;2.40;0.60;;;6.80;99.90;;;;;;5015643;28;20421;-67
2024/01/02 04:40:59;;;;;;;1.52;0.60;;;6.80;99.90;;;;;;5020979;28;20820;-67
2024/01/02 04:43:27;;;;;;;1.90;0.70;;;6.80;99.90;;;;;;5018869;28;20989;-67
2024/01/02 04:45:54;;;;;;;1.40;0.60;;;6.80;99.90;;;;;;5022584;28;20878;-66
2024/01/02 04:48:21;;;;;;;1.50;0.80;;;6.90;99.90;;;;;;5022696;28;20787;-67
2024/01/02 04:50:48;;;;;;;1.55;0.70;;;6.90;99.90;;;;;;5023467;28;20434;-70
2024/01/02 04:53:15;;;;;;;1.60;0.70;;;6.90;99.90;;;;;;5024822;28;20426;-68
2024/01/02 04:55:42;;;;;;;1.23;0.70;;;6.90;99.90;;;;;;5023245;28;20438;-69
2024/01/02 04:58:10;;;;;;;1.10;0.60;;;7.00;99.90;;;;;;5024371;28;20434;-69
2024/01/02 05:00:36;;;;;;;2.17;0.70;;;7.00;99.90;;;;;;5026815;28;21086;-69
2024/01/02 05:03:04;;;;;;;1.20;0.70;;;7.00;99.90;;;;;;5010580;28;20974;-68
2024/01/02 05:05:30;;;;;;;1.50;1.00;;;7.00;99.90;;;;;;5023123;28;20426;-67
2024/01/02 05:07:57;;;;;;;1.37;1.00;;;7.00;99.90;;;;;;5020430;28;20426;-69
2024/01/02 05:10:24;;;;;;;2.00;0.90;;;7.00;99.90;;;;;;5024719;28;20427;-69
2024/01/02 05:12:51;;;;;;;1.30;0.73;;;7.10;99.90;;;;;;5026699;28;20415;-69
2024/01/02 05:15:19;;;;;;;1.42;0.60;;;7.10;99.90;;;;;;5026315;28;20915;-68
2024/01/02 05:17:46;;;;;;;1.67;0.68;;;7.20;99.90;;;;;;5022009;28;21016;-68
2024/01/02 05:20:13;;;;;;;0.90;0.60;;;7.20;99.90;;;;;;5019013;28;20771;-69
2024/01/02 05:22:40;;;;;;;1.48;0.60;;;7.20;99.90;;;;;;5023799;28;20434;-67
2024/01/02 05:25:07;;;;;;;1.83;0.90;;;7.20;99.90;;;;;;5021147;28;20528;-67
2024/01/02 05:27:34;;;;;;;1.90;1.17;;;7.20;99.90;;;;;;5025780;28;20411;-67
2024/01/02 05:30:01;;;;;;;1.07;0.60;;;7.30;99.90;;;;;;5027560;28;20497;-66
2024/01/02 05:32:29;;;;;;;1.00;0.80;;;7.30;99.90;;;;;;5026730;28;20471;-67
2024/01/02 05:34:56;;;;;;;1.50;0.80;;;7.40;99.90;;;;;;5026018;28;20445;-66
2024/01/02 05:37:22;;;;;;;1.60;0.80;;;7.40;99.90;;;;;;5022743;28;20541;-67
2024/01/02 05:39:49;;;;;;;1.67;0.95;;;7.50;99.90;;;;;;5024252;28;20429;-67
2024/01/02 05:42:16;;;;;;;1.10;0.75;;;7.50;99.90;;;;;;5026930;28;20438;-67
2024/01/02 05:44:43;;;;;;;1.10;0.70;;;7.60;99.90;;;;;;5027527;28;20419;-69
2024/01/02 05:47:09;;;;;;;1.27;0.70;;;7.60;99.90;;;;;;5023941;28;20837;-70
2024/01/02 05:49:37;;;;;;;0.70;0.40;;;7.70;99.90;;;;;;5023572;28;20549;-67
2024/01/02 05:52:05;;;;;;;0.98;0.40;;;7.70;99.90;;;;;;5022885;28;20950;-67
2024/01/02 05:54:32;;;;;;;0.90;0.30;;;7.80;99.90;;;;;;5020815;28;20410;-68
2024/01/02 05:56:59;;;;;;;0.77;0.30;;;7.90;99.90;;;;;;5020478;28;20466;-65
2024/01/02 05:59:26;;;;;;;0.80;0.40;;;7.90;99.90;;;;;;5023027;28;20432;-68
2024/01/02 06:01:52;;;;;;;0.93;0.40;;;8.00;99.90;;;;;;5022675;28;20755;-67
2024/01/02 06:04:19;;;;;;;0.70;0.30;;;8.10;99.90;;;;;;5023886;28;20419;-67
2024/01/02 06:06:47;;;;;;;1.03;0.50;;;8.20;99.90;;;;;;5022309;28;20493;-66
2024/01/02 06:09:14;;;;;;;0.80;0.30;;;8.30;99.90;;;;;;5015176;28;20433;-70
2024/01/02 06:11:40;;;;;;;0.80;0.40;;;8.30;99.90;;;;;;5022580;28;20434;-67
2024/01/02 06:14:08;;;;;;;1.00;0.30;;;8.40;99.90;;;;;;5022740;28;20779;-67
2024/01/02 06:16:35;;;;;;;2.05;0.50;;;8.40;99.90;;;;;;5022746;28;20868;-69
2024/01/02 06:19:02;;;;;;;0.80;0.30;;;8.50;99.90;;;;;;5021491;28;20759;-69
2024/01/02 06:21:28;;;;;;;1.10;0.40;;;8.60;99.90;;;;;;5023161;28;20900;-67
2024/01/02 06:23:56;;;;;;;1.00;0.40;;;8.70;99.90;;;;;;5024474;28;20415;-65
2024/01/02 06:26:23;;;;;;;0.88;0.40;;;8.70;99.90;;;;;;5019933;28;20463;-67
2024/01/02 06:28:50;;;;;;;1.00;0.40;;;8.80;99.90;;;;;;5022360;28;20641;-67
2024/01/02 06:31:20;;;;;;;1.10;0.40;;;8.90;99.90;;;;;;5022646;28;20435;-68
2024/01/02 06:33:47;;;;;;;0.70;0.30;;;8.90;99.90;;;;;;5021458;28;20922;-66
2024/01/02 06:36:14;;;;;;;0.90;0.30;;;9.00;99.90;;;;;;5018385;28;20411;-67
2024/01/02 06:38:41;;;;;;;1.20;0.40;;;9.00;99.90;;;;;;5022713;28;20503;-66
2024/01/02 06:41:09;;;;;;;0.90;0.40;;;9.10;99.90;;;;;;5023696;28;20439;-67
2024/01/02 06:43:36;;;;;;;0.80;0.30;;;9.30;99.90;;;;;;5024525;28;20439;-66
2024/01/02 06:46:04;;;;;;;0.88;0.30;;;9.30;99.90;;;;;;5022877;28;20442;-67
2024/01/02 06:48:31;;;;;;;0.88;0.40;;;9.30;99.90;;;;;;5022431;28;20897;-66
2024/01/02 06:50:58;;;;;;;0.80;0.32;;;9.40;99.90;;;;;;5016048;28;20439;-67
2024/01/02 06:53:24;;;;;;;1.60;0.40;;;9.50;99.90;;;;;;5022478;28;20435;-67
2024/01/02 06:55:51;;;;;;;0.93;0.40;;;9.50;99.90;;;;;;5022709;28;20632;-67
2024/01/02 06:58:19;;;;;;;0.77;0.40;;;9.60;99.90;;;;;;5027729;28;20446;-67
2024/01/02 07:00:46;;;;;;;0.70;0.30;;;9.70;99.90;;;;;;5039806;28;20443;-65
2024/01/02 07:03:13;;;;;;;0.93;0.30;;;9.80;99.90;;;;;;5039496;28;20505;-67
2024/01/02 07:05:39;;;;;;;0.80;0.30;;;9.90;99.90;;;;;;5022730;28;20457;-65
2024/01/02 07:08:06;;;;;;;0.70;0.30;;;10.10;99.90;;;;;;5022383;28;20489;-66
2024/01/02 07:10:33;;;;;;;0.80;0.30;;;10.20;99.90;;;;;;5022179;28;20435;-65
2024/01/02 07:13:00;;;;;;;0.80;0.30;;;10.30;99.90;;;;;;5020392;28;20688;-67
2024/01/02 07:15:28;;;;;;;0.90;0.30;;;10.40;99.90;;;;;;5022373;28;20811;-67
2024/01/02 07:17:55;;;;;;;0.93;0.30;;;10.50;99.90;;;;;;5019129;28;20411;-67
2024/01/02 07:20:23;;;;;;;0.70;0.30;;;10.60;99.90;;;;;;5020739;28;20438;-65
2024/01/02 07:22:50;;;;;;;0.70;0.30;;;10.70;99.90;;;;;;5021180;28;20476;-66
2024/01/02 07:25:17;;;;;;;1.10;0.40;;;10.90;99.90;;;;;;5018499;28;20798;-67
2024/01/02 07:27:44;;;;;;;0.70;0.30;;;10.90;99.90;;;;;;5030089;28;20493;-67
2024/01/02 07:30:12;;;;;;;0.80;0.30;;;11.10;99.90;;;;;;5020751;28;20423;-67
2024/01/02 07:32:40;;;;;;;1.10;0.40;;;11.20;99.90;;;;;;5016454;28;20431;-67
2024/01/02 07:35:07;;;;;;;0.70;0.30;;;11.30;99.90;;;;;;5023885;28;20420;-67
2024/01/02 07:37:34;;;;;;;0.90;0.40;;;11.40;99.90;;;;;;5018785;28;20447;-66
2024/01/02 07:40:01;;;;;;;1.20;0.40;;;11.40;99.90;;;;;;5018737;28;20438;-67
2024/01/02 07:42:28;;;;;;;0.80;0.30;;;11.40;99.90;;;;;;5016704;28;20436;-67
2024/01/02 07:47:22;;;;;;;1.00;0.40;;;11.50;99.90;;;;;;5047173;22;20795;-74
2024/01/02 07:49:50;;;;;;;0.70;0.30;;;11.50;99.90;;;;;;5025066;28;20423;-73
2024/01/02 07:52:17;;;;;;;0.70;0.30;;;11.50;99.90;;;;;;5025062;28;20425;-73
2024/01/02 07:54:44;;;;;;;0.70;0.30;;;11.50;99.90;;;;;;5029711;28;20612;-73
2024/01/02 07:57:11;;;;;;;0.70;0.30;;;11.50;99.90;;;;;;5029296;28;20415;-74
2024/01/02 07:59:37;;;;;;;1.20;0.30;;;11.50;99.90;;;;;;5013977;28;20437;-74
2024/01/02 08:02:04;;;;;;;1.10;0.30;;;11.60;99.90;;;;;;5013646;28;21061;-73
2024/01/02 08:04:31;;;;;;;0.90;0.40;;;11.60;99.90;;;;;;5009716;28;20421;-74
2024/01/02 08:07:01;;;;;;;1.80;0.30;;;11.60;99.90;;;;;;5008005;28;20441;-75
2024/01/02 08:09:28;;;;;;;1.20;0.30;;;11.60;99.90;;;;;;5016930;28;20437;-74
2024/01/02 08:11:55;;;;;;;0.70;0.30;;;11.70;99.90;;;;;;5012919;28;20429;-74
2024/01/02 08:14:22;;;;;;;0.82;0.30;;;11.70;99.90;;;;;;5013285;28;20423;-74
2024/01/02 08:16:50;;;;;;;1.20;0.35;;;11.70;99.90;;;;;;5015511;28;20415;-74
2024/01/02 08:19:17;;;;;;;0.70;0.30;;;11.70;99.90;;;;;;5008322;28;20470;-73
2024/01/02 08:21:44;;;;;;;0.80;0.30;;;11.80;99.90;;;;;;5014911;28;20504;-74
2024/01/02 08:24:12;;;;;;;0.87;0.30;;;11.80;99.90;;;;;;5006473;28;20420;-74
2024/01/02 08:26:39;;;;;;;0.70;0.30;;;11.90;99.90;;;;;;5007049;28;20440;-73
2024/01/02 08:29:05;;;;;;;1.50;0.40;;;11.80;99.90;;;;;;5011681;28;20418;-73
2024/01/02 08:31:33;;;;;;;0.85;0.30;;;11.80;99.90;;;;;;5015102;28;20459;-75
2024/01/02 08:34:00;;;;;;;0.80;0.30;;;11.80;99.90;;;;;;5013796;28;20415;-75
2024/01/02 08:36:26;;;;;;;0.70;0.30;;;11.90;99.90;;;;;;5009693;28;20415;-75
2024/01/02 08:38:53;;;;;;;0.70;0.30;;;11.90;99.90;;;;;;5008931;28;20811;-75
2024/01/02 08:41:21;;;;;;;0.80;0.30;;;11.90;99.90;;;;;;5023675;28;20438;-75
2024/01/02 08:43:48;;;;;;;1.00;0.40;;;11.90;99.90;;;;;;5018956;28;20420;-75
2024/01/02 08:46:15;;;;;;;0.80;0.38;;;12.00;99.90;;;;;;5015985;28;20430;-74
2024/01/02 08:48:42;;;;;;;0.80;0.30;;;11.90;99.90;;;;;;5008889;28;20444;-74
2024/01/02 08:51:09;;;;;;;0.80;0.40;;;11.90;99.90;;;;;;5014861;28;21085;-75
2024/01/02 08:53:36;;;;;;;0.70;0.30;;;11.90;99.90;;;;;;5010906;28;20902;-74
2024/01/02 08:56:03;;;;;;;0.80;0.30;;;12.00;99.90;;;;;;5014939;28;20536;-75
2024/01/02 08:58:31;;;;;;;0.70;0.30;;;12.00;99.90;;;;;;5014194;28;20425;-75
2024/01/02 09:00:58;;;;;;;0.80;0.40;;;12.00;99.90;;;;;;5008282;28;20440;-74
2024/01/02 09:03:25;;;;;;;1.00;0.40;;;12.00;99.90;;;;;;5008298;28;20439;-74
2024/01/02 09:05:52;;;;;;;1.20;0.50;;;12.00;99.90;;;;;;5011794;28;20427;-74
2024/01/02 09:08:19;;;;;;;0.82;0.30;;;12.00;99.90;;;;;;5017318;28;20418;-75
2024/01/02 09:10:46;;;;;;;0.93;0.40;;;11.90;99.90;;;;;;5010734;28;20446;-75
2024/01/02 09:13:13;;;;;;;0.90;0.30;;;11.90;99.90;;;;;;5006347;28;20817;-74
2024/01/02 09:15:41;;;;;;;0.90;0.40;;;11.90;99.90;;;;;;5007355;28;20471;-74
2024/01/02 09:18:08;;;;;;;1.60;0.40;;;11.90;99.90;;;;;;5018876;28;20432;-75
2024/01/02 09:20:35;;;;;;;1.20;0.30;;;12.00;99.90;;;;;;5012852;28;20832;-75
2024/01/02 09:23:02;;;;;;;1.17;0.47;;;12.00;99.90;;;;;;5019531;28;20436;-74
2024/01/02 09:25:32;;;;;;;1.67;0.60;;;12.00;99.90;;;;;;5019707;28;20821;-74
2024/01/02 09:28:00;;;;;;;0.70;0.37;;;12.00;99.90;;;;;;5017819;28;20420;-75
2024/01/02 09:30:29;;;;;;;1.00;0.40;;;12.00;99.90;;;;;;5023880;28;20568;-74
2024/01/02 09:32:58;;;;;;;1.13;0.60;;;12.00;99.90;;;;;;5011837;28;20440;-73
2024/01/02 09:35:24;;;;;;;0.80;0.40;;;11.90;99.90;;;;;;5024058;28;20431;-72
2024/01/02 09:37:51;;;;;;;1.00;0.40;;;11.90;99.90;;;;;;5016727;28;20899;-74
2024/01/02 09:40:33;;;;;;;1.30;0.40;;;11.80;99.90;;;;;;5017615;28;20820;-72
2024/01/02 09:43:08;;;;;;;0.80;0.40;;;11.80;99.90;;;;;;5015787;28;20401;-73
2024/01/02 09:45:49;;;;;;;1.00;0.40;;;11.80;99.90;;;;;;5015255;28;20879;-73
2024/01/02 09:48:42;;;;;;;0.98;0.40;;;11.80;99.90;;;;;;5015772;28;20927;-72
2024/01/02 09:51:18;;;;;;;1.10;0.50;;;11.80;99.90;;;;;;5021949;28;20417;-73
2024/01/02 09:54:06;;;;;;;1.20;0.80;;;11.80;99.90;;;;;;5013563;28;20439;-73
2024/01/02 09:56:43;;;;;;;1.20;0.40;;;11.80;99.90;;;;;;5014023;28;20410;-73
2024/01/02 09:59:21;;;;;;;1.00;0.50;;;11.80;99.90;;;;;;5023247;28;20424;-73
2024/01/02 10:02:03;;;;;;;1.08;0.77;;;11.90;99.90;;;;;;5006495;28;20436;-73
2024/01/02 10:04:47;;;;;;;0.80;0.47;;;12.00;99.90;;;;;;5017031;28;20407;-73
2024/01/02 10:07:30;;;;;;;0.80;0.40;;;12.10;99.90;;;;;;5018549;28;20464;-73
2024/01/02 10:10:08;;;;;;;1.10;0.60;;;12.10;99.90;;;;;;5006463;28;20432;-73
2024/01/02 10:12:46;;;;;;;1.30;0.70;;;12.10;99.90;;;;;;5017883;28;20431;-73
2024/01/02 10:15:20;;;;;;;1.00;0.40;;;12.10;99.90;;;;;;5014272;28;20423;-73
2024/01/02 10:17:53;;;;;;;1.00;0.50;;;12.10;99.90;;;;;;5016066;28;20417;-73
2024/01/02 10:20:41;;;;;;;1.30;0.47;;;12.10;99.90;;;;;;5007393;28;20439;-73
2024/01/02 10:23:18;;;;;;;1.00;0.30;;;12.10;99.90;;;;;;5015786;28;20419;-73
2024/01/02 10:25:52;;;;;;;0.80;0.40;;;12.10;99.90;;;;;;5013343;28;20433;-73
2024/01/02 10:28:24;;;;;;;0.80;0.30;;;12.10;99.90;;;;;;5017592;28;20416;-72
2024/01/02 10:30:57;;;;;;;1.00;0.40;;;12.10;99.90;;;;;;5017584;28;20411;-72
2024/01/02 10:33:32;;;;;;;1.85;0.90;;;12.00;99.90;;;;;;5000339;28;20432;-73
2024/01/02 10:36:03;;;;;;;1.00;0.40;;;12.00;99.90;;;;;;5008398;28;20867;-72
2024/01/02 10:38:39;;;;;;;0.95;0.40;;;12.00;99.90;;;;;;5016530;28;20827;-73
2024/01/02 10:41:20;;;;;;;0.80;0.40;;;11.90;99.90;;;;;;5015210;28;20417;-73
2024/01/02 10:43:55;;;;;;;1.00;0.40;;;11.90;99.90;;;;;;5021888;28;20419;-74
2024/01/02 10:46:30;;;;;;;0.80;0.40;;;11.80;99.90;;;;;;5009651;28;20421;-73
2024/01/02 10:49:08;;;;;;;0.80;0.30;;;11.80;99.90;;;;;;5015413;28;20659;-72
2024/01/02 10:51:39;;;;;;;0.70;0.30;;;11.80;99.90;;;;;;5022297;28;20419;-72
2024/01/02 10:54:09;;;;;;;0.70;0.30;;;11.70;99.90;;;;;;5014013;28;20447;-72
2024/01/02 10:56:42;;;;;;;1.20;0.30;;;11.60;99.90;;;;;;5018273;28;20426;-72
2024/01/02 10:59:30;;;;;;;0.90;0.30;;;11.40;99.90;;;;;;5018338;28;20543;-72
2024/01/02 11:02:04;;;;;;;0.90;0.40;;;11.30;99.90;;;;;;5017958;28;20467;-72
2024/01/02 11:04:42;;;;;;;0.80;0.40;;;11.10;99.90;;;;;;5014057;28;20421;-72
2024/01/02 11:07:13;;;;;;;0.90;0.40;;;10.90;99.90;;;;;;5009059;28;20424;-72
2024/01/02 11:09:50;;;;;;;0.70;0.30;;;10.70;99.90;;;;;;5013197;28;20458;-71
2024/01/02 11:12:18;;;;;;;0.70;0.30;;;10.60;99.90;;;;;;5018690;28;20415;-72
2024/01/02 11:14:47;;;;;;;0.80;0.38;;;10.50;99.90;;;;;;5009399;28;20425;-72
2024/01/02 11:17:16;;;;;;;0.80;0.30;;;10.50;99.90;;;;;;5026358;28;20921;-73
2024/01/02 11:19:51;;;;;;;0.90;0.30;;;10.50;99.90;;;;;;5011181;28;20777;-73
2024/01/02 11:22:28;;;;;;;0.90;0.30;;;10.40;99.90;;;;;;5010052;28;20843;-73
2024/01/02 11:25:01;;;;;;;0.70;0.30;;;10.40;99.90;;;;;;5008005;28;20435;-72
2024/01/02 11:27:29;;;;;;;0.80;0.40;;;10.30;99.90;;;;;;5013625;28;20423;-72
2024/01/02 11:29:57;;;;;;;1.30;0.50;;;10.30;99.90;;;;;;5020167;28;20421;-73
2024/01/02 11:32:38;;;;;;;1.20;0.50;;;10.20;99.90;;;;;;5009624;28;20447;-73
2024/01/02 11:35:07;;;;;;;1.58;0.40;;;10.20;99.90;;;;;;5014135;28;20912;-73
2024/01/02 11:37:37;;;;;;;0.70;0.38;;;10.20;99.90;;;;;;5006785;28;20447;-73
2024/01/02 11:40:16;;;;;;;0.80;0.40;;;10.20;99.90;;;;;;5015865;28;20447;-73
2024/01/02 11:42:57;;;;;;;1.30;0.40;;;10.10;99.90;;;;;;5004789;28;20407;-73
2024/01/02 11:45:26;;;;;;;0.80;0.40;;;10.10;99.90;;;;;;5008559;28;20451;-73
2024/01/02 11:48:08;;;;;;;0.80;0.40;;;10.00;99.90;;;;;;5002844;28;20440;-74
2024/01/02 11:50:46;;;;;;;0.80;0.38;;;10.00;99.90;;;;;;5010593;28;20411;-73
2024/01/02 11:53:24;;;;;;;0.70;0.30;;;10.00;99.90;;;;;;5008373;28;20448;-73
2024/01/02 11:55:56;;;;;;;0.80;0.40;;;10.00;99.90;;;;;;5005362;28;20459;-73
2024/01/02 11:58:27;;;;;;;1.20;0.50;;;9.90;99.90;;;;;;5003968;28;20421;-73
2024/01/02 12:01:06;;;;;;;1.10;0.40;;;9.90;99.90;;;;;;5006255;28;20438;-73
2024/01/02 12:03:44;;;;;;;1.23;0.40;;;9.80;99.90;;;;;;5012314;28;20423;-74
2024/01/02 12:06:23;;;;;;;0.80;0.30;;;9.80;99.90;;;;;;5010731;28;20792;-74
2024/01/02 12:08:58;;;;;;;0.93;0.40;;;9.80;99.90;;;;;;5010852;28;20475;-74
2024/01/02 12:11:30;;;;;;;1.00;0.50;;;9.80;99.90;;;;;;4997751;28;20432;-73
2024/01/02 12:14:14;;;;;;;1.00;0.40;;;9.70;99.90;;;;;;5007563;28;20575;-73
2024/01/02 12:16:43;;;;;;;1.38;0.70;;;9.70;99.90;;;;;;5001157;28;20434;-73
2024/01/02 12:19:15;;;;;;;1.98;0.50;;;9.70;99.90;;;;;;5007051;28;20945;-73
2024/01/02 12:21:42;;;;;;;1.10;0.50;;;9.60;99.90;;;;;;5012608;28;20448;-73
2024/01/02 12:24:14;;;;;;;1.50;0.60;;;9.60;99.90;;;;;;5017918;28;20494;-73
2024/01/02 12:26:43;;;;;;;1.00;0.60;;;9.60;99.90;;;;;;5001792;28;20553;-73
2024/01/02 12:29:13;;;;;;;1.13;0.63;;;9.60;99.90;;;;;;5008758;28;20429;-74
2024/01/02 12:31:49;;;;;;;1.10;0.60;;;9.50;99.90;;;;;;4994868;28;20757;-74
2024/01/02 12:34:23;;;;;;;1.40;0.50;;;9.50;99.90;;;;;;5006449;28;20437;-73
2024/01/02 12:37:03;;;;;;;1.00;0.50;;;9.50;99.90;;;;;;5000984;28;20418;-74
2024/01/02 12:39:38;;;;;;;1.27;0.60;;;9.50;99.90;;;;;;5006259;28;20404;-74
2024/01/02 12:42:08;;;;;;;2.40;0.80;;;9.50;99.90;;;;;;4997053;28;20452;-73
2024/01/02 12:44:37;;;;;;;1.02;0.60;;;9.50;99.90;;;;;;5007021;28;20413;-74
2024/01/02 12:47:09;;;;;;;1.02;0.70;;;9.50;99.90;;;;;;5000449;28;20644;-74
2024/01/02 12:49:45;;;;;;;1.90;0.90;;;9.50;99.90;;;;;;5004033;28;20461;-74
2024/01/02 12:52:18;;;;;;;2.47;1.00;;;9.40;99.90;;;;;;4988512;28;20443;-74
2024/01/02 12:54:49;;;;;;;1.50;0.80;;;9.40;99.90;;;;;;5002985;28;20470;-74
2024/01/02 12:57:16;;;;;;;1.60;1.10;;;9.40;99.90;;;;;;5000286;28;20418;-74
2024/01/02 12:59:44;;;;;;;1.58;0.70;;;9.40;99.90;;;;;;5014998;28;20416;-74
2024/01/02 13:02:12;;;;;;;1.50;0.60;;;9.40;99.90;;;;;;5004967;28;20831;-75
2024/01/02 13:04:39;;;;;;;1.50;0.50;;;9.40;99.90;;;;;;5016185;28;20422;-74